Time;durP1;ratioP1;P1;durP2;ratioP2;P2;SDS_P1;SDS_P2;PMS_P1;PMS_P2;Temp;Humidity;BMP_temperature;BMP_pressure;BME280_temperature;BME280_humidity;BME280_pressure;Samples;Min_cycle;Max_cycle;Signal;HPM_P1;HPM_P2
2023/09/06 00:00:29;;;;;;;5.03;3.35;;;19.00;99.90;;;;;;5053843;28;20079;-50
2023/09/06 00:02:57;;;;;;;5.60;3.20;;;19.00;99.90;;;;;;5067059;28;20044;-48
2023/09/06 00:05:24;;;;;;;3.20;3.00;;;19.00;99.90;;;;;;5065401;28;20047;-49
2023/09/06 00:07:49;;;;;;;3.08;2.80;;;19.10;99.90;;;;;;5060068;28;20041;-49
2023/09/06 00:10:15;;;;;;;2.70;2.50;;;19.10;99.90;;;;;;5056270;28;20090;-49
2023/09/06 00:12:41;;;;;;;3.92;2.88;;;19.10;99.90;;;;;;5066429;28;20040;-51
2023/09/06 00:15:11;;;;;;;5.10;2.63;;;19.10;99.90;;;;;;5056468;28;20044;-53
2023/09/06 00:17:37;;;;;;;3.20;2.63;;;19.10;99.90;;;;;;5058083;28;20151;-49
2023/09/06 00:20:22;;;;;;;11.80;3.10;;;19.10;99.90;;;;;;5063485;28;20043;-47
2023/09/06 00:22:59;;;;;;;2.22;2.00;;;19.10;99.90;;;;;;5070551;28;20405;-47
2023/09/06 00:25:26;;;;;;;3.50;1.70;;;19.00;99.90;;;;;;5063887;28;20067;-47
2023/09/06 00:27:52;;;;;;;3.28;2.97;;;19.00;99.90;;;;;;5069959;28;20099;-49
2023/09/06 00:30:21;;;;;;;3.35;3.05;;;18.90;99.90;;;;;;5068171;28;20044;-51
2023/09/06 00:32:48;;;;;;;4.43;2.40;;;18.90;99.90;;;;;;5070115;28;20438;-47
2023/09/06 00:35:18;;;;;;;3.40;2.95;;;18.80;99.90;;;;;;5063057;28;20048;-47
2023/09/06 00:37:44;;;;;;;6.35;2.65;;;18.80;99.90;;;;;;5070124;28;20045;-47
2023/09/06 00:40:19;;;;;;;5.35;2.47;;;18.90;99.90;;;;;;5067313;28;20382;-47
2023/09/06 00:42:52;;;;;;;2.92;2.72;;;18.90;99.90;;;;;;5070502;28;20040;-47
2023/09/06 00:45:22;;;;;;;6.57;2.90;;;18.90;99.90;;;;;;5065784;28;20041;-49
2023/09/06 00:47:53;;;;;;;4.57;2.85;;;18.90;99.90;;;;;;5068424;28;20119;-48
2023/09/06 00:50:19;;;;;;;8.57;3.10;;;18.80;99.90;;;;;;5068245;28;20089;-46
2023/09/06 00:52:45;;;;;;;2.78;2.38;;;18.70;99.90;;;;;;5057512;28;20710;-48
2023/09/06 00:55:11;;;;;;;;;;;18.70;99.90;;;;;;5065316;28;20132;-46
2023/09/06 00:57:38;;;;;;;3.83;2.72;;;18.70;99.90;;;;;;5069757;28;20359;-47
2023/09/06 01:00:06;;;;;;;5.80;2.38;;;18.70;99.90;;;;;;5068052;28;20128;-51
2023/09/06 01:02:32;;;;;;;4.30;2.78;;;18.70;99.90;;;;;;5061576;28;20517;-48
2023/09/06 01:04:57;;;;;;;6.68;3.13;;;18.60;99.90;;;;;;5068972;28;20086;-46
2023/09/06 01:07:25;;;;;;;;;;;18.70;99.90;;;;;;5070403;28;20036;-47
2023/09/06 01:09:51;;;;;;;4.00;3.28;;;18.70;99.90;;;;;;5065852;28;19920;-50
2023/09/06 01:12:20;;;;;;;6.00;3.50;;;18.70;99.90;;;;;;5069275;28;20048;-47
2023/09/06 01:14:46;;;;;;;3.88;2.72;;;18.70;99.90;;;;;;5064752;28;20086;-46
2023/09/06 01:17:15;;;;;;;5.15;3.45;;;18.70;99.90;;;;;;5062804;28;20037;-47
2023/09/06 01:19:45;;;;;;;6.65;3.20;;;18.70;99.90;;;;;;5065292;28;20056;-49
2023/09/06 01:22:26;;;;;;;8.75;3.50;;;18.60;99.90;;;;;;5065366;28;20565;-50
2023/09/06 01:24:52;;;;;;;2.78;2.58;;;18.50;99.90;;;;;;5065223;28;20059;-47
2023/09/06 01:27:19;;;;;;;3.90;2.83;;;18.50;99.90;;;;;;5067366;28;20051;-46
2023/09/06 01:29:45;;;;;;;8.20;3.00;;;18.50;99.90;;;;;;5066933;28;20074;-47
2023/09/06 01:32:11;;;;;;;3.08;2.63;;;18.50;99.90;;;;;;5067720;28;20510;-46
2023/09/06 01:34:37;;;;;;;5.70;3.30;;;18.50;99.90;;;;;;5057326;28;20041;-49
2023/09/06 01:37:02;;;;;;;5.10;2.90;;;18.50;99.90;;;;;;5053663;28;20142;-47
2023/09/06 01:39:28;;;;;;;4.05;3.00;;;18.40;99.90;;;;;;5051680;28;20478;-48
2023/09/06 01:41:53;;;;;;;2.58;2.17;;;18.30;99.90;;;;;;5056718;28;20076;-47
2023/09/06 01:44:19;;;;;;;4.05;2.42;;;18.20;99.90;;;;;;5052063;28;20037;-47
2023/09/06 01:46:45;;;;;;;4.50;2.17;;;18.20;99.90;;;;;;5066193;28;20044;-50
2023/09/06 01:49:11;;;;;;;1.77;1.63;;;18.10;99.90;;;;;;5059410;28;20048;-47
2023/09/06 01:51:37;;;;;;;2.85;2.17;;;18.00;99.90;;;;;;5050500;28;20406;-52
2023/09/06 01:54:07;;;;;;;2.60;2.40;;;17.90;99.90;;;;;;5057500;28;20329;-46
2023/09/06 01:56:33;;;;;;;6.15;2.70;;;17.70;99.90;;;;;;5067218;28;20065;-46
2023/09/06 01:58:58;;;;;;;2.65;2.20;;;17.60;99.90;;;;;;5068139;28;20493;-48
2023/09/06 02:01:24;;;;;;;4.35;2.75;;;17.50;99.90;;;;;;5059807;28;20070;-49
2023/09/06 02:03:50;;;;;;;9.63;3.83;;;17.40;99.90;;;;;;5054099;28;20052;-48
2023/09/06 02:06:16;;;;;;;;;;;17.30;99.90;;;;;;5049633;28;20036;-47
2023/09/06 02:08:41;;;;;;;5.60;3.58;;;17.30;99.90;;;;;;5053098;28;20011;-51
2023/09/06 02:11:07;;;;;;;3.05;2.78;;;17.30;99.90;;;;;;5050953;28;20040;-47
2023/09/06 02:13:33;;;;;;;2.72;2.53;;;17.30;99.90;;;;;;5059021;28;20397;-47
2023/09/06 02:15:59;;;;;;;4.13;3.20;;;17.40;99.90;;;;;;5050556;28;20036;-50
2023/09/06 02:18:26;;;;;;;4.05;2.70;;;17.40;99.90;;;;;;5066589;28;20478;-50
2023/09/06 02:20:55;;;;;;;5.72;3.83;;;17.50;99.90;;;;;;5057790;28;20090;-50
2023/09/06 02:23:21;;;;;;;3.72;2.45;;;17.60;99.90;;;;;;5054577;28;20025;-48
2023/09/06 02:25:47;;;;;;;7.03;3.45;;;17.60;99.90;;;;;;5065774;28;20090;-48
2023/09/06 02:28:14;;;;;;;3.17;2.88;;;17.60;99.90;;;;;;5063667;28;20037;-47
2023/09/06 02:30:41;;;;;;;5.10;2.97;;;17.60;99.90;;;;;;5058737;28;20063;-49
2023/09/06 02:33:08;;;;;;;5.55;3.40;;;17.60;99.90;;;;;;5064091;28;20049;-47
2023/09/06 02:35:35;;;;;;;10.43;3.40;;;17.60;99.90;;;;;;5064029;28;20112;-48
2023/09/06 02:38:01;;;;;;;4.32;2.95;;;17.50;99.90;;;;;;5067569;28;20123;-47
2023/09/06 02:40:26;;;;;;;3.80;2.63;;;17.40;99.90;;;;;;5073062;28;20038;-47
2023/09/06 02:42:53;;;;;;;3.53;2.80;;;17.40;99.90;;;;;;5068364;28;20052;-48
2023/09/06 02:45:22;;;;;;;6.88;3.67;;;17.30;99.90;;;;;;5071899;28;20048;-46
2023/09/06 02:47:51;;;;;;;5.30;2.97;;;17.20;99.90;;;;;;5068605;28;20051;-51
2023/09/06 02:50:24;;;;;;;7.03;3.30;;;17.10;99.90;;;;;;5071926;28;20048;-46
2023/09/06 02:52:52;;;;;;;4.35;3.70;;;17.00;99.90;;;;;;5064144;28;20078;-48
2023/09/06 02:55:18;;;;;;;4.65;3.22;;;17.00;99.90;;;;;;5071936;28;20048;-52
2023/09/06 02:57:44;;;;;;;8.13;3.65;;;16.90;99.90;;;;;;5062788;28;20090;-50
2023/09/06 03:00:27;;;;;;;4.82;4.10;;;17.00;99.90;;;;;;5056611;28;20116;-47
2023/09/06 03:03:06;;;;;;;5.13;4.55;;;16.90;99.90;;;;;;5063766;28;20037;-47
2023/09/06 03:05:42;;;;;;;5.32;4.82;;;16.90;99.90;;;;;;5061022;28;20532;-48
2023/09/06 03:08:08;;;;;;;5.07;4.57;;;16.90;99.90;;;;;;5059950;28;20044;-47
2023/09/06 03:10:34;;;;;;;5.25;4.30;;;16.90;99.90;;;;;;5069981;28;20172;-47
2023/09/06 03:13:00;;;;;;;;;;;17.00;99.90;;;;;;5071293;28;20037;-46
2023/09/06 03:15:28;;;;;;;8.00;4.22;;;17.00;99.90;;;;;;5063662;28;20002;-49
2023/09/06 03:18:01;;;;;;;7.20;5.20;;;17.10;99.90;;;;;;5058682;28;20071;-55
2023/09/06 03:20:33;;;;;;;5.38;4.30;;;17.10;99.90;;;;;;5066379;28;20378;-50
2023/09/06 03:23:16;;;;;;;5.35;4.57;;;17.10;99.90;;;;;;5057345;28;20128;-51
2023/09/06 03:25:43;;;;;;;4.93;4.45;;;17.10;99.90;;;;;;5064774;28;20409;-47
2023/09/06 03:28:09;;;;;;;4.88;4.43;;;17.10;99.90;;;;;;5063620;28;20047;-47
2023/09/06 03:30:34;;;;;;;11.65;5.05;;;17.10;99.90;;;;;;5061402;28;20077;-47
2023/09/06 03:33:01;;;;;;;5.90;4.65;;;17.10;99.90;;;;;;5057781;28;20287;-47
2023/09/06 03:35:27;;;;;;;6.47;4.32;;;17.10;99.90;;;;;;5059142;28;20044;-46
2023/09/06 03:37:53;;;;;;;7.03;4.43;;;17.20;99.90;;;;;;5065821;28;20041;-50
2023/09/06 03:40:25;;;;;;;6.53;5.35;;;17.20;99.90;;;;;;5067793;28;20028;-48
2023/09/06 03:42:56;;;;;;;5.32;4.57;;;17.20;99.90;;;;;;5065991;28;20549;-50
2023/09/06 03:45:24;;;;;;;5.20;4.60;;;17.20;99.90;;;;;;5066208;28;20101;-48
2023/09/06 03:47:51;;;;;;;5.30;4.80;;;17.20;99.90;;;;;;5065885;28;20101;-47
2023/09/06 03:50:18;;;;;;;5.38;4.80;;;17.30;99.90;;;;;;5062858;28;20044;-50
2023/09/06 03:52:44;;;;;;;4.75;4.35;;;17.20;99.90;;;;;;5056687;28;20040;-47
2023/09/06 03:55:13;;;;;;;5.00;4.35;;;17.30;99.90;;;;;;5055144;28;20108;-50
2023/09/06 03:57:39;;;;;;;8.32;5.07;;;17.30;99.90;;;;;;5062758;28;20191;-47
2023/09/06 04:00:20;;;;;;;5.10;4.70;;;17.20;99.90;;;;;;5058388;28;20501;-47
2023/09/06 04:02:45;;;;;;;15.75;5.13;;;17.30;99.90;;;;;;5063851;28;20132;-52
2023/09/06 04:05:11;;;;;;;10.48;5.18;;;17.30;99.90;;;;;;5067474;28;20119;-46
2023/09/06 04:07:38;;;;;;;5.03;3.83;;;17.30;99.90;;;;;;5054556;28;20421;-47
2023/09/06 04:10:07;;;;;;;3.53;3.22;;;17.30;99.90;;;;;;5065892;28;20177;-48
2023/09/06 04:12:35;;;;;;;4.20;3.78;;;17.10;99.90;;;;;;5066733;28;20426;-47
2023/09/06 04:15:01;;;;;;;6.43;4.53;;;17.00;99.90;;;;;;5060774;28;20494;-47
2023/09/06 04:17:27;;;;;;;4.72;4.32;;;17.00;99.90;;;;;;5057937;28;20117;-47
2023/09/06 04:19:54;;;;;;;5.47;4.57;;;17.00;99.90;;;;;;5063814;28;20400;-47
2023/09/06 04:22:19;;;;;;;5.95;4.60;;;17.00;99.90;;;;;;5061478;28;20032;-48
2023/09/06 04:24:45;;;;;;;8.13;3.38;;;17.00;99.90;;;;;;5059398;28;20409;-47
2023/09/06 04:27:12;;;;;;;3.35;3.05;;;17.00;99.90;;;;;;5064930;28;20478;-49
2023/09/06 04:29:37;;;;;;;4.57;4.03;;;16.90;99.90;;;;;;5058212;28;20091;-49
2023/09/06 04:32:03;;;;;;;5.90;3.72;;;16.90;99.90;;;;;;5062641;28;20037;-47
2023/09/06 04:34:29;;;;;;;5.18;4.50;;;16.80;99.90;;;;;;5061075;28;20037;-49
2023/09/06 04:36:54;;;;;;;4.65;4.18;;;16.70;99.90;;;;;;5053820;28;20029;-47
2023/09/06 04:39:20;;;;;;;4.07;3.63;;;16.70;99.90;;;;;;5064529;28;20485;-47
2023/09/06 04:41:46;;;;;;;6.65;4.55;;;16.50;99.90;;;;;;5070116;28;20037;-49
2023/09/06 04:44:11;;;;;;;5.93;5.13;;;16.50;99.90;;;;;;5065675;28;20041;-51
2023/09/06 04:46:37;;;;;;;5.30;4.90;;;16.40;99.90;;;;;;5067871;28;20490;-47
2023/09/06 04:49:02;;;;;;;6.40;5.70;;;16.40;99.90;;;;;;5060398;28;20097;-47
2023/09/06 04:51:28;;;;;;;6.60;5.97;;;16.40;99.90;;;;;;5067729;28;20079;-46
2023/09/06 04:53:54;;;;;;;9.00;6.47;;;16.40;99.90;;;;;;5065156;28;20064;-50
2023/09/06 04:56:20;;;;;;;5.50;5.00;;;16.40;99.90;;;;;;5063110;28;20040;-47
2023/09/06 04:58:45;;;;;;;9.63;5.25;;;16.50;99.90;;;;;;5066847;28;20032;-47
2023/09/06 05:01:11;;;;;;;5.85;5.18;;;16.50;99.90;;;;;;5070103;28;20127;-48
2023/09/06 05:03:38;;;;;;;5.35;4.88;;;16.50;99.90;;;;;;5056573;28;20150;-48
2023/09/06 05:06:03;;;;;;;5.80;5.35;;;16.60;99.90;;;;;;5065019;28;20545;-47
2023/09/06 05:08:30;;;;;;;8.00;5.25;;;16.60;99.90;;;;;;5066331;28;20179;-49
2023/09/06 05:10:56;;;;;;;5.25;4.85;;;16.70;99.90;;;;;;5053529;28;20410;-47
2023/09/06 05:13:22;;;;;;;7.55;4.90;;;16.70;99.90;;;;;;5062088;28;20041;-50
2023/09/06 05:15:48;;;;;;;;;;;16.70;99.90;;;;;;5063076;28;20409;-47
2023/09/06 05:18:14;;;;;;;7.93;4.93;;;16.70;99.90;;;;;;5068602;28;19920;-49
2023/09/06 05:20:40;;;;;;;5.97;5.40;;;16.70;99.90;;;;;;5061420;28;20477;-48
2023/09/06 05:23:07;;;;;;;6.25;5.70;;;16.60;99.90;;;;;;5069940;28;20115;-48
2023/09/06 05:25:34;;;;;;;6.32;5.05;;;16.60;99.90;;;;;;5058653;28;20134;-50
2023/09/06 05:28:02;;;;;;;5.72;5.10;;;16.60;99.90;;;;;;5063754;28;20029;-47
2023/09/06 05:30:27;;;;;;;7.03;5.50;;;16.60;99.90;;;;;;5061228;28;20048;-48
2023/09/06 05:32:55;;;;;;;6.18;5.38;;;16.60;99.90;;;;;;5069740;28;20154;-47
2023/09/06 05:35:21;;;;;;;7.20;6.50;;;16.60;99.90;;;;;;5062513;28;20028;-50
2023/09/06 05:37:47;;;;;;;9.43;5.75;;;16.60;99.90;;;;;;5069254;28;20085;-51
2023/09/06 05:40:12;;;;;;;7.25;6.57;;;16.60;99.90;;;;;;5061934;28;20032;-50
2023/09/06 05:42:39;;;;;;;10.25;5.70;;;16.60;99.90;;;;;;5062310;28;20123;-48
2023/09/06 05:45:12;;;;;;;5.93;5.35;;;16.60;99.90;;;;;;5063133;28;20086;-47
2023/09/06 05:47:38;;;;;;;8.32;5.70;;;16.60;99.90;;;;;;5060269;28;20413;-48
2023/09/06 05:50:05;;;;;;;9.00;5.75;;;16.70;99.90;;;;;;5058676;28;20051;-47
2023/09/06 05:52:31;;;;;;;6.80;6.20;;;16.80;99.90;;;;;;5056110;28;20098;-50
2023/09/06 05:54:56;;;;;;;15.93;5.90;;;16.80;99.90;;;;;;5068083;28;20482;-47
2023/09/06 05:57:22;;;;;;;7.97;5.63;;;16.90;99.90;;;;;;5065186;28;20032;-47
2023/09/06 05:59:48;;;;;;;12.20;5.20;;;17.00;99.90;;;;;;5064881;28;20036;-47
2023/09/06 06:02:14;;;;;;;7.00;5.13;;;17.10;99.90;;;;;;5053393;28;20619;-49
2023/09/06 06:04:41;;;;;;;7.95;4.93;;;17.30;99.90;;;;;;5062814;28;20039;-48
2023/09/06 06:07:07;;;;;;;5.35;4.88;;;17.40;99.90;;;;;;5057673;28;20133;-48
2023/09/06 06:09:33;;;;;;;5.75;5.20;;;17.60;99.90;;;;;;5056237;28;20040;-49
2023/09/06 06:11:58;;;;;;;6.18;4.38;;;17.80;99.90;;;;;;5061561;28;20045;-48
2023/09/06 06:14:28;;;;;;;10.15;4.05;;;17.90;99.90;;;;;;5064954;28;20037;-54
2023/09/06 06:16:53;;;;;;;5.78;4.68;;;18.00;99.90;;;;;;5064844;28;20037;-50
2023/09/06 06:19:19;;;;;;;8.52;5.03;;;18.10;99.90;;;;;;5067714;28;20040;-48
2023/09/06 06:21:45;;;;;;;6.57;5.95;;;18.20;99.90;;;;;;5069679;28;20098;-47
2023/09/06 06:24:12;;;;;;;;;;;18.30;99.90;;;;;;5066986;28;20045;-48
2023/09/06 06:26:37;;;;;;;5.75;5.25;;;18.40;99.90;;;;;;5056465;28;19966;-51
2023/09/06 06:29:03;;;;;;;6.03;5.43;;;18.50;99.90;;;;;;5064997;28;20492;-49
2023/09/06 06:31:29;;;;;;;11.30;6.00;;;18.60;99.90;;;;;;5069791;28;20040;-48
2023/09/06 06:33:55;;;;;;;5.80;5.28;;;18.60;99.90;;;;;;5053834;28;20459;-48
2023/09/06 06:36:21;;;;;;;6.25;5.20;;;18.70;99.90;;;;;;5058082;28;20382;-48
2023/09/06 06:38:47;;;;;;;5.22;4.70;;;18.70;99.90;;;;;;5058066;28;20055;-48
2023/09/06 06:41:22;;;;;;;;;;;18.80;99.90;;;;;;5068601;28;20036;-48
2023/09/06 06:43:49;;;;;;;8.00;5.43;;;18.90;99.90;;;;;;5068894;28;19916;-49
2023/09/06 06:46:28;;;;;;;6.88;5.57;;;19.00;99.90;;;;;;5060358;28;20044;-51
2023/09/06 06:48:54;;;;;;;7.00;6.38;;;19.00;99.90;;;;;;5064450;28;20045;-52
2023/09/06 06:51:20;;;;;;;;;;;19.10;99.90;;;;;;5061251;28;20060;-51
2023/09/06 06:53:46;;;;;;;7.53;4.95;;;19.20;99.90;;;;;;5061532;28;20285;-49
2023/09/06 06:56:12;;;;;;;6.13;5.10;;;19.30;99.90;;;;;;5063045;28;20094;-47
2023/09/06 06:58:37;;;;;;;;;;;19.40;99.90;;;;;;5059655;28;20094;-48
2023/09/06 07:01:03;;;;;;;9.60;5.28;;;19.50;99.90;;;;;;5061271;28;19934;-49
2023/09/06 07:03:29;;;;;;;6.25;5.13;;;19.50;99.90;;;;;;5063411;28;20040;-53
2023/09/06 07:05:55;;;;;;;5.32;4.40;;;19.60;99.90;;;;;;5063458;28;20086;-50
2023/09/06 07:08:23;;;;;;;9.27;5.97;;;19.70;99.90;;;;;;5052737;28;20607;-51
2023/09/06 07:10:49;;;;;;;10.80;5.32;;;19.80;99.90;;;;;;5052934;28;20036;-51
2023/09/06 07:13:15;;;;;;;580.67;63.10;;;19.90;99.90;;;;;;5054016;28;20033;-48
2023/09/06 07:15:40;;;;;;;;;;;20.00;99.90;;;;;;5058236;28;20048;-51
2023/09/06 07:18:08;;;;;;;16.60;5.30;;;20.10;99.90;;;;;;5057822;28;19920;-49
2023/09/06 07:20:34;;;;;;;15.55;5.72;;;20.20;99.90;;;;;;5054974;28;20044;-50
2023/09/06 07:23:00;;;;;;;6.68;4.75;;;20.30;99.90;;;;;;5057006;28;20037;-50
2023/09/06 07:25:27;;;;;;;;;;;20.40;99.90;;;;;;5068535;28;20033;-49
2023/09/06 07:27:53;;;;;;;12.88;5.07;;;20.50;99.90;;;;;;5065103;28;19916;-50
2023/09/06 07:30:18;;;;;;;;;;;20.70;99.90;;;;;;5068019;28;20039;-53
2023/09/06 07:32:44;;;;;;;6.57;4.10;;;20.80;99.90;;;;;;5061511;28;20002;-50
2023/09/06 07:35:09;;;;;;;;;;;20.90;99.90;;;;;;5060441;28;20051;-48
2023/09/06 07:37:35;;;;;;;7.70;4.18;;;21.10;99.90;;;;;;5065155;28;20003;-52
2023/09/06 07:40:01;;;;;;;;;;;21.10;99.90;;;;;;5054301;28;20054;-52
2023/09/06 07:42:27;;;;;;;7.25;4.45;;;21.20;99.90;;;;;;5060224;28;19916;-48
2023/09/06 07:44:52;;;;;;;;;;;21.40;99.90;;;;;;5055635;28;20028;-55
2023/09/06 07:47:18;;;;;;;4.70;3.80;;;21.50;99.90;;;;;;5061809;28;20015;-50
2023/09/06 07:49:43;;;;;;;;;;;21.60;99.90;;;;;;5064290;28;20090;-51
2023/09/06 07:52:09;;;;;;;5.15;4.05;;;21.70;99.90;;;;;;5058364;28;20307;-50
2023/09/06 07:54:34;;;;;;;;;;;21.80;99.90;;;;;;5061437;28;20040;-53
2023/09/06 07:57:00;;;;;;;6.25;3.47;;;21.90;99.90;;;;;;5062583;28;20419;-49
2023/09/06 07:59:26;;;;;;;;;;;22.00;99.90;;;;;;5063054;28;20111;-53
2023/09/06 08:01:51;;;;;;;4.38;3.35;;;22.20;99.90;;;;;;5056927;28;19952;-52
2023/09/06 08:04:20;;;;;;;;;;;22.30;99.90;;;;;;5053719;28;20175;-50
2023/09/06 08:06:46;;;;;;;7.90;3.65;;;22.40;99.90;;;;;;5055643;28;19974;-52
2023/09/06 08:09:12;;;;;;;;;;;22.50;99.90;;;;;;5065247;28;20040;-55
2023/09/06 08:11:38;;;;;;;5.32;3.33;;;22.60;99.90;;;;;;5048701;28;20433;-55
2023/09/06 08:14:03;;;;;;;;;;;22.70;99.90;;;;;;5049601;28;20482;-52
2023/09/06 08:16:29;;;;;;;5.43;2.63;;;22.80;99.90;;;;;;5047610;28;19967;-54
2023/09/06 08:18:56;;;;;;;90.88;29.38;;;22.90;99.90;;;;;;5046204;28;20075;-55
2023/09/06 08:21:22;;;;;;;4.03;3.13;;;22.90;99.90;;;;;;5061229;28;20040;-55
2023/09/06 08:23:47;;;;;;;;;;;23.00;99.90;;;;;;5037802;28;20036;-55
2023/09/06 08:26:13;;;;;;;3.80;2.60;;;23.10;99.90;;;;;;5047533;28;20003;-56
2023/09/06 08:28:39;;;;;;;2.80;2.28;;;23.20;99.90;;;;;;5056308;28;21562;-55
2023/09/06 08:31:05;;;;;;;;;;;23.30;99.90;;;;;;5046223;28;20033;-52
2023/09/06 08:33:31;;;;;;;2.47;2.17;;;23.40;99.90;;;;;;5046059;28;19926;-52
2023/09/06 08:35:58;;;;;;;;;;;23.50;99.90;;;;;;5052572;28;20284;-53
2023/09/06 08:38:24;;;;;;;2.65;2.45;;;23.60;99.90;;;;;;5051056;28;19931;-55
2023/09/06 08:40:49;;;;;;;2.67;2.10;;;23.70;99.90;;;;;;5055788;28;20077;-52
2023/09/06 08:43:18;;;;;;;2.88;2.03;;;23.80;99.90;;;;;;5052014;28;20463;-52
2023/09/06 08:45:46;;;;;;;3.55;1.95;;;23.80;99.90;;;;;;5046981;28;20493;-54
2023/09/06 08:48:12;;;;;;;6.53;2.08;;;23.90;99.90;;;;;;5052929;28;20028;-55
2023/09/06 08:50:38;;;;;;;2.65;2.03;;;24.00;99.90;;;;;;5057031;28;20039;-54
2023/09/06 08:53:05;;;;;;;2.67;1.48;;;24.20;99.90;;;;;;5058762;28;20303;-56
2023/09/06 08:55:31;;;;;;;5.07;1.25;;;24.20;99.90;;;;;;5056975;28;20028;-55
2023/09/06 08:57:57;;;;;;;2.30;1.50;;;24.30;99.90;;;;;;5051178;28;20496;-55
2023/09/06 09:00:23;;;;;;;3.63;2.03;;;24.40;99.90;;;;;;5053155;28;20028;-54
2023/09/06 09:02:50;;;;;;;3.92;0.95;;;24.50;99.90;;;;;;5054195;28;20070;-51
2023/09/06 09:05:15;;;;;;;2.95;1.38;;;24.50;99.90;;;;;;5053413;28;20079;-51
2023/09/06 09:07:41;;;;;;;2.75;1.15;;;24.60;99.90;;;;;;5056844;28;20036;-54
2023/09/06 09:10:09;;;;;;;3.88;1.25;;;24.70;99.90;;;;;;5046877;28;20029;-54
2023/09/06 09:12:37;;;;;;;4.38;1.20;;;24.80;99.90;;;;;;5056314;28;20037;-49
2023/09/06 09:15:03;;;;;;;4.57;1.30;;;24.90;99.90;;;;;;5050783;28;20048;-52
2023/09/06 09:17:30;;;;;;;2.60;1.30;;;24.90;99.90;;;;;;5052903;28;20090;-49
2023/09/06 09:19:57;;;;;;;4.45;1.25;;;25.00;99.90;;;;;;5045822;28;20037;-55
2023/09/06 09:22:30;;;;;;;5.63;1.38;;;25.10;99.90;;;;;;5050276;28;20466;-54
2023/09/06 09:25:24;;;;;;;3.20;1.25;;;25.20;99.90;;;;;;5055108;28;20040;-50
2023/09/06 09:27:56;;;;;;;5.72;1.27;;;25.20;99.90;;;;;;5049140;28;20037;-55
2023/09/06 09:30:22;;;;;;;4.15;1.27;;;25.30;99.90;;;;;;5055294;28;20489;-52
2023/09/06 09:32:48;;;;;;;3.85;1.33;;;25.40;99.90;;;;;;5056697;28;20375;-53
2023/09/06 09:35:14;;;;;;;4.60;1.50;;;25.50;99.90;;;;;;5053518;28;20060;-51
2023/09/06 09:37:41;;;;;;;2.75;1.20;;;25.50;99.90;;;;;;5056289;28;20406;-56
2023/09/06 09:40:32;;;;;;;2.97;1.17;;;25.60;99.90;;;;;;5049055;28;20030;-56
2023/09/06 09:43:00;;;;;;;1.58;1.10;;;25.60;99.90;;;;;;5050636;28;20516;-54
2023/09/06 09:45:29;;;;;;;2.65;0.98;;;25.70;99.90;;;;;;5052706;28;20147;-54
2023/09/06 09:47:59;;;;;;;4.07;0.90;;;25.80;99.90;;;;;;5056132;28;20044;-56
2023/09/06 09:50:26;;;;;;;1.75;1.38;;;25.90;99.90;;;;;;5058139;28;20370;-54
2023/09/06 09:52:52;;;;;;;1.80;1.20;;;26.00;99.90;;;;;;5050952;28;20040;-54
2023/09/06 09:55:23;;;;;;;2.88;1.42;;;26.10;99.90;;;;;;5046235;28;20033;-52
2023/09/06 09:57:50;;;;;;;1.38;1.20;;;26.10;99.90;;;;;;5052792;28;20072;-56
2023/09/06 10:00:17;;;;;;;1.33;1.23;;;26.20;99.90;;;;;;5049711;28;20041;-54
2023/09/06 10:02:45;;;;;;;3.20;0.98;;;26.30;99.90;;;;;;5057681;28;20045;-53
2023/09/06 10:05:16;;;;;;;2.38;1.17;;;26.30;99.90;;;;;;5059620;28;20051;-55
2023/09/06 10:07:43;;;;;;;3.38;1.15;;;26.40;99.90;;;;;;5056131;28;20044;-56
2023/09/06 10:10:12;;;;;;;2.17;0.88;;;26.50;99.90;;;;;;5054791;28;20246;-54
2023/09/06 10:12:45;;;;;;;5.28;0.90;;;26.60;99.90;;;;;;5056723;28;20481;-56
2023/09/06 10:15:19;;;;;;;3.05;1.05;;;26.70;99.90;;;;;;5064136;28;20112;-56
2023/09/06 10:17:47;;;;;;;2.40;1.17;;;26.70;99.90;;;;;;5055527;28;20045;-56
2023/09/06 10:20:16;;;;;;;3.45;1.23;;;26.80;99.90;;;;;;5048555;28;20036;-56
2023/09/06 10:22:43;;;;;;;2.85;1.45;;;26.90;99.90;;;;;;5050869;28;20404;-57
2023/09/06 10:25:10;;;;;;;1.52;0.80;;;26.90;99.90;;;;;;5051764;28;20445;-54
2023/09/06 10:27:45;;;;;;;3.58;0.90;;;27.00;99.80;;;;;;5062962;28;20165;-56
2023/09/06 10:30:17;;;;;;;2.22;1.08;;;27.00;99.60;;;;;;5052151;28;20044;-56
2023/09/06 10:32:46;;;;;;;3.08;0.70;;;27.10;99.70;;;;;;5043545;28;20137;-56
2023/09/06 10:35:32;;;;;;;2.13;0.85;;;27.20;99.00;;;;;;5050757;28;20041;-55
2023/09/06 10:38:02;;;;;;;;;;;27.20;98.70;;;;;;5055319;28;20064;-56
2023/09/06 10:40:49;;;;;;;4.35;1.02;;;27.30;99.40;;;;;;5050782;28;19924;-56
2023/09/06 10:43:16;;;;;;;3.60;0.82;;;27.40;99.20;;;;;;5053652;28;20041;-54
2023/09/06 10:45:54;;;;;;;1.40;0.98;;;27.40;98.40;;;;;;5047486;28;20036;-56
2023/09/06 10:48:20;;;;;;;7.30;1.33;;;27.40;98.80;;;;;;5049386;28;20076;-53
2023/09/06 10:51:06;;;;;;;2.50;1.20;;;27.40;98.70;;;;;;5053127;28;20041;-55
2023/09/06 10:53:33;;;;;;;3.97;1.23;;;27.50;98.80;;;;;;5056056;28;20436;-55
2023/09/06 10:56:01;;;;;;;2.45;0.90;;;27.60;98.30;;;;;;5055783;28;20082;-56
2023/09/06 10:58:29;;;;;;;2.47;0.93;;;27.60;97.80;;;;;;5059361;28;20047;-56
2023/09/06 11:01:18;;;;;;;4.20;1.00;;;27.60;97.70;;;;;;5049637;28;20033;-54
2023/09/06 11:03:54;;;;;;;2.28;1.05;;;27.70;97.30;;;;;;5060077;28;20036;-55
2023/09/06 11:06:19;;;;;;;1.35;0.68;;;27.80;97.30;;;;;;5060544;28;20312;-56
2023/09/06 11:08:47;;;;;;;3.42;0.90;;;27.90;97.50;;;;;;5055590;28;20175;-56
2023/09/06 11:11:14;;;;;;;1.05;0.80;;;27.90;96.60;;;;;;5057704;28;20051;-57
2023/09/06 11:13:42;;;;;;;4.72;0.80;;;28.00;96.40;;;;;;5058969;28;20558;-55
2023/09/06 11:16:13;;;;;;;1.23;0.88;;;28.00;96.40;;;;;;5054199;28;20111;-53
2023/09/06 11:18:46;;;;;;;1.35;0.70;;;28.00;96.20;;;;;;5055848;28;20119;-53
2023/09/06 11:21:18;;;;;;;1.00;0.73;;;28.10;95.90;;;;;;5064050;28;20541;-56
2023/09/06 11:23:51;;;;;;;1.60;0.80;;;28.10;96.40;;;;;;5055503;28;20265;-56
2023/09/06 11:26:17;;;;;;;2.13;1.08;;;28.20;96.20;;;;;;5053269;28;20039;-56
2023/09/06 11:28:43;;;;;;;3.15;0.90;;;28.20;95.60;;;;;;5052311;28;20037;-56
2023/09/06 11:31:34;;;;;;;4.30;1.30;;;28.20;96.50;;;;;;5050622;28;20159;-55
2023/09/06 11:34:04;;;;;;;3.45;1.25;;;28.30;95.60;;;;;;5056749;28;20045;-57
2023/09/06 11:36:32;;;;;;;1.92;0.73;;;28.30;96.10;;;;;;5055471;28;20048;-55
2023/09/06 11:39:21;;;;;;;3.10;0.75;;;28.30;96.00;;;;;;5051252;28;20638;-54
2023/09/06 11:41:48;;;;;;;1.35;0.90;;;28.40;95.80;;;;;;5054217;28;20401;-55
2023/09/06 11:44:17;;;;;;;3.75;0.70;;;28.40;95.40;;;;;;5051309;28;20530;-56
2023/09/06 11:46:43;;;;;;;2.80;0.77;;;28.50;95.50;;;;;;5049380;28;20037;-56
2023/09/06 11:49:11;;;;;;;1.02;0.60;;;28.50;95.50;;;;;;5052862;28;20040;-54
2023/09/06 11:51:37;;;;;;;52.60;3.70;;;28.60;95.80;;;;;;5059194;28;20389;-53
2023/09/06 11:54:09;;;;;;;22.67;1.70;;;28.70;95.70;;;;;;5048357;28;20498;-55
2023/09/06 11:56:38;;;;;;;1.77;0.95;;;28.70;95.80;;;;;;5050592;28;20048;-54
2023/09/06 11:59:12;;;;;;;1.95;0.68;;;28.80;95.60;;;;;;5059074;28;20064;-53
2023/09/06 12:01:44;;;;;;;2.05;0.65;;;28.90;94.90;;;;;;5050816;28;20048;-53
2023/09/06 12:04:16;;;;;;;2.80;0.73;;;28.90;95.70;;;;;;5055496;28;20299;-55
2023/09/06 12:06:42;;;;;;;2.03;1.00;;;29.00;95.50;;;;;;5050873;28;20047;-57
2023/09/06 12:09:15;;;;;;;0.75;0.68;;;29.10;95.40;;;;;;5048893;28;20497;-52
2023/09/06 12:11:41;;;;;;;0.95;0.60;;;29.10;95.50;;;;;;5053020;28;20040;-53
2023/09/06 12:14:12;;;;;;;1.83;0.70;;;29.20;95.20;;;;;;5054933;28;20077;-56
2023/09/06 12:16:38;;;;;;;2.13;0.60;;;29.30;95.20;;;;;;5051544;28;20070;-53
2023/09/06 12:19:04;;;;;;;3.05;0.50;;;29.30;94.80;;;;;;5053708;28;20044;-53
2023/09/06 12:21:30;;;;;;;4.25;0.70;;;29.40;95.30;;;;;;5057827;28;20045;-56
2023/09/06 12:23:58;;;;;;;2.70;0.43;;;29.30;94.80;;;;;;5063508;28;20041;-56
2023/09/06 12:26:23;;;;;;;2.35;0.98;;;29.40;94.50;;;;;;5057423;28;20045;-55
2023/09/06 12:28:50;;;;;;;1.30;0.52;;;29.40;94.70;;;;;;5054443;28;20040;-53
2023/09/06 12:31:15;;;;;;;2.65;0.85;;;29.50;95.00;;;;;;5061417;28;20032;-54
2023/09/06 12:33:42;;;;;;;3.45;0.73;;;29.50;94.60;;;;;;5052671;28;20036;-56
2023/09/06 12:36:10;;;;;;;1.10;0.60;;;29.60;94.50;;;;;;5060907;28;20101;-57
2023/09/06 12:38:36;;;;;;;2.90;0.80;;;29.60;94.20;;;;;;5050538;28;20036;-55
2023/09/06 12:41:04;;;;;;;3.45;0.90;;;29.60;93.90;;;;;;5062020;28;20592;-56
2023/09/06 12:43:34;;;;;;;1.00;0.80;;;29.70;93.80;;;;;;5060716;28;20052;-54
2023/09/06 12:46:00;;;;;;;2.53;0.98;;;29.70;93.50;;;;;;5053951;28;20117;-56
2023/09/06 12:48:26;;;;;;;1.02;0.50;;;29.80;93.70;;;;;;5058273;28;20163;-55
2023/09/06 12:50:52;;;;;;;2.47;0.73;;;29.80;93.10;;;;;;5050893;28;20028;-57
2023/09/06 12:53:18;;;;;;;2.03;0.80;;;29.80;93.60;;;;;;5051023;28;20141;-54
2023/09/06 12:55:46;;;;;;;3.55;0.50;;;29.90;93.60;;;;;;5044260;28;20495;-54